sensor_id;sensor_type;location;lat;lon;timestamp;temperature;humidity
3564;DHT22;1796;52.388;13.096;2022-07-25T00:00:34;17.60;99.90
3564;DHT22;1796;52.388;13.096;2022-07-25T00:03:01;17.60;99.90
3564;DHT22;1796;52.388;13.096;2022-07-25T00:05:28;17.70;99.90
3564;DHT22;1796;52.388;13.096;2022-07-25T00:07:55;17.60;99.90
3564;DHT22;1796;52.388;13.096;2022-07-25T00:10:22;17.60;99.90
3564;DHT22;1796;52.388;13.096;2022-07-25T00:12:49;17.70;99.90
3564;DHT22;1796;52.388;13.096;2022-07-25T00:15:18;17.70;99.90
3564;DHT22;1796;52.388;13.096;2022-07-25T00:17:45;17.70;99.90
3564;DHT22;1796;52.388;13.096;2022-07-25T00:20:12;17.60;99.90
3564;DHT22;1796;52.388;13.096;2022-07-25T00:22:39;17.60;99.90
3564;DHT22;1796;52.388;13.096;2022-07-25T00:25:06;17.50;99.90
3564;DHT22;1796;52.388;13.096;2022-07-25T00:27:33;17.40;99.90
3564;DHT22;1796;52.388;13.096;2022-07-25T00:30:00;17.40;99.90
3564;DHT22;1796;52.388;13.096;2022-07-25T00:32:29;17.30;99.90
3564;DHT22;1796;52.388;13.096;2022-07-25T00:34:56;17.30;99.90
3564;DHT22;1796;52.388;13.096;2022-07-25T00:37:23;17.10;99.90
3564;DHT22;1796;52.388;13.096;2022-07-25T00:39:49;17.10;99.90
3564;DHT22;1796;52.388;13.096;2022-07-25T00:42:17;17.00;99.90
3564;DHT22;1796;52.388;13.096;2022-07-25T00:44:44;17.00;99.90
3564;DHT22;1796;52.388;13.096;2022-07-25T00:47:11;17.00;99.90
3564;DHT22;1796;52.388;13.096;2022-07-25T00:49:39;16.90;99.90
3564;DHT22;1796;52.388;13.096;2022-07-25T00:52:06;16.90;99.90
3564;DHT22;1796;52.388;13.096;2022-07-25T00:54:34;16.80;99.90
3564;DHT22;1796;52.388;13.096;2022-07-25T00:57:01;16.80;99.90
3564;DHT22;1796;52.388;13.096;2022-07-25T00:59:28;16.70;99.90
3564;DHT22;1796;52.388;13.096;2022-07-25T01:01:55;16.70;99.90
3564;DHT22;1796;52.388;13.096;2022-07-25T01:04:21;16.60;99.90
3564;DHT22;1796;52.388;13.096;2022-07-25T01:06:50;16.60;99.90
3564;DHT22;1796;52.388;13.096;2022-07-25T01:09:18;16.60;99.90
3564;DHT22;1796;52.388;13.096;2022-07-25T01:11:46;16.60;99.90
3564;DHT22;1796;52.388;13.096;2022-07-25T01:14:13;16.60;99.90
3564;DHT22;1796;52.388;13.096;2022-07-25T01:16:40;16.60;99.90
3564;DHT22;1796;52.388;13.096;2022-07-25T01:19:07;16.60;99.90
3564;DHT22;1796;52.388;13.096;2022-07-25T01:21:37;16.50;99.90
3564;DHT22;1796;52.388;13.096;2022-07-25T01:24:05;16.50;99.90
3564;DHT22;1796;52.388;13.096;2022-07-25T01:26:33;16.50;99.90
3564;DHT22;1796;52.388;13.096;2022-07-25T01:29:00;16.60;99.90
3564;DHT22;1796;52.388;13.096;2022-07-25T01:31:27;16.60;99.90
3564;DHT22;1796;52.388;13.096;2022-07-25T01:33:53;16.50;99.90
3564;DHT22;1796;52.388;13.096;2022-07-25T01:36:20;16.50;99.90
3564;DHT22;1796;52.388;13.096;2022-07-25T01:38:49;16.50;99.90
3564;DHT22;1796;52.388;13.096;2022-07-25T01:41:16;16.60;99.90
3564;DHT22;1796;52.388;13.096;2022-07-25T01:43:42;16.60;99.90
3564;DHT22;1796;52.388;13.096;2022-07-25T01:46:10;16.60;99.90
3564;DHT22;1796;52.388;13.096;2022-07-25T01:48:36;16.50;99.90
3564;DHT22;1796;52.388;13.096;2022-07-25T01:51:04;16.50;99.90
3564;DHT22;1796;52.388;13.096;2022-07-25T01:53:31;16.60;99.90
3564;DHT22;1796;52.388;13.096;2022-07-25T01:55:59;16.60;99.90
3564;DHT22;1796;52.388;13.096;2022-07-25T01:58:26;16.60;99.90
3564;DHT22;1796;52.388;13.096;2022-07-25T02:00:53;16.60;99.90
3564;DHT22;1796;52.388;13.096;2022-07-25T02:03:20;16.60;99.90
3564;DHT22;1796;52.388;13.096;2022-07-25T02:05:56;16.50;99.90
3564;DHT22;1796;52.388;13.096;2022-07-25T02:08:23;16.50;99.90
3564;DHT22;1796;52.388;13.096;2022-07-25T02:10:50;16.50;99.90
3564;DHT22;1796;52.388;13.096;2022-07-25T02:13:19;16.50;99.90
3564;DHT22;1796;52.388;13.096;2022-07-25T02:15:46;16.60;99.90
3564;DHT22;1796;52.388;13.096;2022-07-25T02:18:13;16.50;99.90
3564;DHT22;1796;52.388;13.096;2022-07-25T02:20:40;16.50;99.90
3564;DHT22;1796;52.388;13.096;2022-07-25T02:23:07;16.40;99.90
3564;DHT22;1796;52.388;13.096;2022-07-25T02:25:34;16.40;99.90
3564;DHT22;1796;52.388;13.096;2022-07-25T02:28:01;16.30;99.90
3564;DHT22;1796;52.388;13.096;2022-07-25T02:30:29;16.30;99.90
3564;DHT22;1796;52.388;13.096;2022-07-25T02:32:56;16.20;99.90
3564;DHT22;1796;52.388;13.096;2022-07-25T02:35:24;16.20;99.90
3564;DHT22;1796;52.388;13.096;2022-07-25T02:37:51;16.20;99.90
3564;DHT22;1796;52.388;13.096;2022-07-25T02:40:18;16.20;99.90
3564;DHT22;1796;52.388;13.096;2022-07-25T02:42:45;16.20;99.90
3564;DHT22;1796;52.388;13.096;2022-07-25T02:45:12;16.20;99.90
3564;DHT22;1796;52.388;13.096;2022-07-25T02:47:40;16.10;99.90
3564;DHT22;1796;52.388;13.096;2022-07-25T02:50:08;16.00;99.90
3564;DHT22;1796;52.388;13.096;2022-07-25T02:52:35;16.10;99.90
3564;DHT22;1796;52.388;13.096;2022-07-25T02:55:02;16.10;99.90
3564;DHT22;1796;52.388;13.096;2022-07-25T02:57:29;16.00;99.90
3564;DHT22;1796;52.388;13.096;2022-07-25T02:59:56;16.10;99.90
3564;DHT22;1796;52.388;13.096;2022-07-25T03:02:23;16.10;99.90
3564;DHT22;1796;52.388;13.096;2022-07-25T03:04:51;16.30;99.90
3564;DHT22;1796;52.388;13.096;2022-07-25T03:07:18;16.30;99.90
3564;DHT22;1796;52.388;13.096;2022-07-25T03:09:45;16.30;99.90
3564;DHT22;1796;52.388;13.096;2022-07-25T03:12:12;16.30;99.90
3564;DHT22;1796;52.388;13.096;2022-07-25T03:14:39;16.30;99.90
3564;DHT22;1796;52.388;13.096;2022-07-25T03:17:06;16.20;99.90
3564;DHT22;1796;52.388;13.096;2022-07-25T03:19:33;16.20;99.90
3564;DHT22;1796;52.388;13.096;2022-07-25T03:22:01;16.20;99.90
3564;DHT22;1796;52.388;13.096;2022-07-25T03:24:28;16.20;99.90
3564;DHT22;1796;52.388;13.096;2022-07-25T03:26:55;16.10;99.90
3564;DHT22;1796;52.388;13.096;2022-07-25T03:29:21;16.10;99.90
3564;DHT22;1796;52.388;13.096;2022-07-25T03:31:48;16.10;99.90
3564;DHT22;1796;52.388;13.096;2022-07-25T03:34:15;16.10;99.90
3564;DHT22;1796;52.388;13.096;2022-07-25T03:36:42;16.10;99.90
3564;DHT22;1796;52.388;13.096;2022-07-25T03:39:11;16.20;99.90
3564;DHT22;1796;52.388;13.096;2022-07-25T03:41:39;16.20;99.90
3564;DHT22;1796;52.388;13.096;2022-07-25T03:44:06;16.20;99.90
3564;DHT22;1796;52.388;13.096;2022-07-25T03:46:33;16.20;99.90
3564;DHT22;1796;52.388;13.096;2022-07-25T03:49:00;16.20;99.90
3564;DHT22;1796;52.388;13.096;2022-07-25T03:51:26;16.10;99.90
3564;DHT22;1796;52.388;13.096;2022-07-25T03:53:53;16.10;99.90
3564;DHT22;1796;52.388;13.096;2022-07-25T03:56:35;16.20;99.90
3564;DHT22;1796;52.388;13.096;2022-07-25T03:59:03;16.30;99.90
3564;DHT22;1796;52.388;13.096;2022-07-25T04:01:31;16.50;99.90
3564;DHT22;1796;52.388;13.096;2022-07-25T04:03:58;16.60;99.90
3564;DHT22;1796;52.388;13.096;2022-07-25T04:06:25;16.80;99.90
3564;DHT22;1796;52.388;13.096;2022-07-25T04:08:53;17.30;99.90
3564;DHT22;1796;52.388;13.096;2022-07-25T04:11:20;17.90;99.90
3564;DHT22;1796;52.388;13.096;2022-07-25T04:13:49;18.20;99.90
3564;DHT22;1796;52.388;13.096;2022-07-25T04:16:17;18.40;99.90
3564;DHT22;1796;52.388;13.096;2022-07-25T04:18:44;18.70;99.90
3564;DHT22;1796;52.388;13.096;2022-07-25T04:21:11;18.80;99.90
3564;DHT22;1796;52.388;13.096;2022-07-25T04:23:38;19.00;99.90
3564;DHT22;1796;52.388;13.096;2022-07-25T04:26:05;19.60;99.90
3564;DHT22;1796;52.388;13.096;2022-07-25T04:28:32;20.00;99.90
3564;DHT22;1796;52.388;13.096;2022-07-25T04:31:00;20.50;99.90
3564;DHT22;1796;52.388;13.096;2022-07-25T04:33:27;20.70;99.90
3564;DHT22;1796;52.388;13.096;2022-07-25T04:35:54;20.90;99.90
3564;DHT22;1796;52.388;13.096;2022-07-25T04:38:21;21.20;99.90
3564;DHT22;1796;52.388;13.096;2022-07-25T04:40:48;21.80;99.90
3564;DHT22;1796;52.388;13.096;2022-07-25T04:43:15;21.90;99.90
3564;DHT22;1796;52.388;13.096;2022-07-25T04:45:42;21.90;99.90
3564;DHT22;1796;52.388;13.096;2022-07-25T04:48:10;22.30;99.90
3564;DHT22;1796;52.388;13.096;2022-07-25T04:50:37;22.60;99.90
3564;DHT22;1796;52.388;13.096;2022-07-25T04:53:04;22.70;99.90
3564;DHT22;1796;52.388;13.096;2022-07-25T04:55:31;22.80;99.90
3564;DHT22;1796;52.388;13.096;2022-07-25T04:57:58;22.90;99.90
3564;DHT22;1796;52.388;13.096;2022-07-25T05:00:25;23.30;99.90
3564;DHT22;1796;52.388;13.096;2022-07-25T05:02:52;23.70;99.90
3564;DHT22;1796;52.388;13.096;2022-07-25T05:05:21;24.00;99.90
3564;DHT22;1796;52.388;13.096;2022-07-25T05:07:48;24.10;99.90
3564;DHT22;1796;52.388;13.096;2022-07-25T05:10:15;24.60;99.90
3564;DHT22;1796;52.388;13.096;2022-07-25T05:12:42;24.60;99.90
3564;DHT22;1796;52.388;13.096;2022-07-25T05:15:10;24.60;99.90
3564;DHT22;1796;52.388;13.096;2022-07-25T05:17:37;24.70;99.90
3564;DHT22;1796;52.388;13.096;2022-07-25T05:20:05;25.00;99.90
3564;DHT22;1796;52.388;13.096;2022-07-25T05:22:34;25.00;99.90
3564;DHT22;1796;52.388;13.096;2022-07-25T05:25:01;25.20;99.90
3564;DHT22;1796;52.388;13.096;2022-07-25T05:27:28;25.40;99.90
3564;DHT22;1796;52.388;13.096;2022-07-25T05:29:55;25.90;99.90
3564;DHT22;1796;52.388;13.096;2022-07-25T05:32:22;26.00;99.90
3564;DHT22;1796;52.388;13.096;2022-07-25T05:34:49;26.00;99.90
3564;DHT22;1796;52.388;13.096;2022-07-25T05:37:16;26.40;99.90
3564;DHT22;1796;52.388;13.096;2022-07-25T05:39:44;26.30;99.90
3564;DHT22;1796;52.388;13.096;2022-07-25T05:42:11;26.90;99.90
3564;DHT22;1796;52.388;13.096;2022-07-25T05:44:38;27.30;99.90
3564;DHT22;1796;52.388;13.096;2022-07-25T05:47:08;27.40;99.90
3564;DHT22;1796;52.388;13.096;2022-07-25T05:49:35;27.80;99.90
3564;DHT22;1796;52.388;13.096;2022-07-25T05:52:02;27.90;99.90
3564;DHT22;1796;52.388;13.096;2022-07-25T05:54:29;27.90;99.90
3564;DHT22;1796;52.388;13.096;2022-07-25T05:56:57;28.20;99.90
3564;DHT22;1796;52.388;13.096;2022-07-25T05:59:24;28.20;99.90
3564;DHT22;1796;52.388;13.096;2022-07-25T06:01:51;28.70;99.90
3564;DHT22;1796;52.388;13.096;2022-07-25T06:04:18;28.70;99.90
3564;DHT22;1796;52.388;13.096;2022-07-25T06:06:45;29.00;99.90
3564;DHT22;1796;52.388;13.096;2022-07-25T06:09:16;29.00;99.90
3564;DHT22;1796;52.388;13.096;2022-07-25T06:11:43;29.00;99.90
3564;DHT22;1796;52.388;13.096;2022-07-25T06:14:11;29.40;99.90
3564;DHT22;1796;52.388;13.096;2022-07-25T06:16:39;29.50;99.90
3564;DHT22;1796;52.388;13.096;2022-07-25T06:19:06;29.60;99.90
3564;DHT22;1796;52.388;13.096;2022-07-25T06:21:33;29.80;99.90
3564;DHT22;1796;52.388;13.096;2022-07-25T06:24:00;30.00;99.90
3564;DHT22;1796;52.388;13.096;2022-07-25T06:26:27;30.10;99.90
3564;DHT22;1796;52.388;13.096;2022-07-25T06:28:54;30.30;99.90
3564;DHT22;1796;52.388;13.096;2022-07-25T06:31:22;30.60;99.90
3564;DHT22;1796;52.388;13.096;2022-07-25T06:33:49;30.90;99.90
3564;DHT22;1796;52.388;13.096;2022-07-25T06:36:16;31.20;99.90
3564;DHT22;1796;52.388;13.096;2022-07-25T06:38:42;31.10;99.90
3564;DHT22;1796;52.388;13.096;2022-07-25T06:41:13;31.20;99.90
3564;DHT22;1796;52.388;13.096;2022-07-25T06:43:40;31.70;99.90
3564;DHT22;1796;52.388;13.096;2022-07-25T06:46:07;31.60;99.90
3564;DHT22;1796;52.388;13.096;2022-07-25T06:48:36;31.60;99.90
3564;DHT22;1796;52.388;13.096;2022-07-25T06:51:04;31.80;99.90
3564;DHT22;1796;52.388;13.096;2022-07-25T06:53:31;32.30;99.90
3564;DHT22;1796;52.388;13.096;2022-07-25T06:55:58;32.70;99.90
3564;DHT22;1796;52.388;13.096;2022-07-25T06:58:25;32.30;99.90
3564;DHT22;1796;52.388;13.096;2022-07-25T07:00:52;32.20;99.90
3564;DHT22;1796;52.388;13.096;2022-07-25T07:03:19;32.10;99.90
3564;DHT22;1796;52.388;13.096;2022-07-25T07:05:52;32.40;99.90
3564;DHT22;1796;52.388;13.096;2022-07-25T07:08:19;33.10;99.90
3564;DHT22;1796;52.388;13.096;2022-07-25T07:10:46;33.20;99.90
3564;DHT22;1796;52.388;13.096;2022-07-25T07:13:13;34.10;99.80
3564;DHT22;1796;52.388;13.096;2022-07-25T07:15:44;34.10;99.60
3564;DHT22;1796;52.388;13.096;2022-07-25T07:18:13;34.10;98.90
3564;DHT22;1796;52.388;13.096;2022-07-25T07:20:40;33.90;98.80
3564;DHT22;1796;52.388;13.096;2022-07-25T07:23:09;33.80;98.60
3564;DHT22;1796;52.388;13.096;2022-07-25T07:25:36;33.90;98.70
3564;DHT22;1796;52.388;13.096;2022-07-25T07:28:03;33.90;98.80
3564;DHT22;1796;52.388;13.096;2022-07-25T07:30:31;34.60;98.80
3564;DHT22;1796;52.388;13.096;2022-07-25T07:32:59;35.00;98.30
3564;DHT22;1796;52.388;13.096;2022-07-25T07:35:25;35.10;97.90
3564;DHT22;1796;52.388;13.096;2022-07-25T07:37:53;35.00;97.60
3564;DHT22;1796;52.388;13.096;2022-07-25T07:40:21;34.70;98.00
3564;DHT22;1796;52.388;13.096;2022-07-25T07:42:49;34.80;98.00
3564;DHT22;1796;52.388;13.096;2022-07-25T07:45:18;34.70;97.70
3564;DHT22;1796;52.388;13.096;2022-07-25T07:47:45;34.80;97.70
3564;DHT22;1796;52.388;13.096;2022-07-25T07:50:13;35.20;97.40
3564;DHT22;1796;52.388;13.096;2022-07-25T07:52:41;35.50;97.20
3564;DHT22;1796;52.388;13.096;2022-07-25T07:55:09;36.20;96.80
3564;DHT22;1796;52.388;13.096;2022-07-25T07:57:55;35.70;96.60
3564;DHT22;1796;52.388;13.096;2022-07-25T08:00:24;36.30;96.60
3564;DHT22;1796;52.388;13.096;2022-07-25T08:02:53;36.30;96.20
3564;DHT22;1796;52.388;13.096;2022-07-25T08:05:21;36.00;96.20
3564;DHT22;1796;52.388;13.096;2022-07-25T08:07:48;36.20;95.90
3564;DHT22;1796;52.388;13.096;2022-07-25T08:10:18;35.90;95.90
3564;DHT22;1796;52.388;13.096;2022-07-25T08:12:45;36.60;95.60
3564;DHT22;1796;52.388;13.096;2022-07-25T08:15:14;36.70;95.40
3564;DHT22;1796;52.388;13.096;2022-07-25T08:17:42;36.80;95.10
3564;DHT22;1796;52.388;13.096;2022-07-25T08:20:10;37.30;95.40
3564;DHT22;1796;52.388;13.096;2022-07-25T08:22:39;37.80;94.40
3564;DHT22;1796;52.388;13.096;2022-07-25T08:25:07;37.70;94.60
3564;DHT22;1796;52.388;13.096;2022-07-25T08:27:35;37.30;94.20
3564;DHT22;1796;52.388;13.096;2022-07-25T08:30:07;37.30;94.40
3564;DHT22;1796;52.388;13.096;2022-07-25T08:32:45;36.80;94.40
3564;DHT22;1796;52.388;13.096;2022-07-25T08:35:13;35.80;94.80
3564;DHT22;1796;52.388;13.096;2022-07-25T08:37:43;36.00;95.00
3564;DHT22;1796;52.388;13.096;2022-07-25T08:40:13;36.40;94.90
3564;DHT22;1796;52.388;13.096;2022-07-25T08:42:41;36.30;94.90
3564;DHT22;1796;52.388;13.096;2022-07-25T08:45:12;35.60;94.70
3564;DHT22;1796;52.388;13.096;2022-07-25T08:47:43;35.50;94.90
3564;DHT22;1796;52.388;13.096;2022-07-25T08:50:12;34.90;95.20
3564;DHT22;1796;52.388;13.096;2022-07-25T08:52:43;34.90;95.30
3564;DHT22;1796;52.388;13.096;2022-07-25T08:55:15;34.80;95.40
3564;DHT22;1796;52.388;13.096;2022-07-25T08:57:45;34.90;95.30
3564;DHT22;1796;52.388;13.096;2022-07-25T09:00:16;34.60;95.30
3564;DHT22;1796;52.388;13.096;2022-07-25T09:02:50;33.80;95.60
3564;DHT22;1796;52.388;13.096;2022-07-25T09:05:17;33.60;95.60
3564;DHT22;1796;52.388;13.096;2022-07-25T09:07:45;33.30;95.80
3564;DHT22;1796;52.388;13.096;2022-07-25T09:10:15;33.00;96.10
3564;DHT22;1796;52.388;13.096;2022-07-25T09:12:50;32.60;96.20
3564;DHT22;1796;52.388;13.096;2022-07-25T09:15:27;32.40;96.70
3564;DHT22;1796;52.388;13.096;2022-07-25T09:17:57;32.50;96.70
3564;DHT22;1796;52.388;13.096;2022-07-25T09:20:36;32.30;96.80
3564;DHT22;1796;52.388;13.096;2022-07-25T09:23:04;32.40;96.80
3564;DHT22;1796;52.388;13.096;2022-07-25T09:25:31;32.40;96.40
3564;DHT22;1796;52.388;13.096;2022-07-25T09:28:09;32.40;97.00
3564;DHT22;1796;52.388;13.096;2022-07-25T09:30:37;32.40;96.50
3564;DHT22;1796;52.388;13.096;2022-07-25T09:33:07;32.10;96.60
3564;DHT22;1796;52.388;13.096;2022-07-25T09:35:34;32.10;96.70
3564;DHT22;1796;52.388;13.096;2022-07-25T09:38:10;32.20;96.60
3564;DHT22;1796;52.388;13.096;2022-07-25T09:40:38;32.10;96.70
3564;DHT22;1796;52.388;13.096;2022-07-25T09:43:06;32.20;96.60
3564;DHT22;1796;52.388;13.096;2022-07-25T09:45:33;32.30;96.80
3564;DHT22;1796;52.388;13.096;2022-07-25T09:48:03;32.20;96.60
3564;DHT22;1796;52.388;13.096;2022-07-25T09:50:33;32.20;96.60
3564;DHT22;1796;52.388;13.096;2022-07-25T09:53:02;32.40;96.60
3564;DHT22;1796;52.388;13.096;2022-07-25T09:55:30;32.40;96.70
3564;DHT22;1796;52.388;13.096;2022-07-25T09:58:00;32.40;96.50
3564;DHT22;1796;52.388;13.096;2022-07-25T10:00:28;32.30;96.50
3564;DHT22;1796;52.388;13.096;2022-07-25T10:03:16;32.30;96.00
3564;DHT22;1796;52.388;13.096;2022-07-25T10:06:01;32.30;96.00
3564;DHT22;1796;52.388;13.096;2022-07-25T10:08:35;32.50;96.50
3564;DHT22;1796;52.388;13.096;2022-07-25T10:11:02;32.50;96.70
3564;DHT22;1796;52.388;13.096;2022-07-25T10:13:32;32.40;96.30
3564;DHT22;1796;52.388;13.096;2022-07-25T10:16:00;32.50;96.10
3564;DHT22;1796;52.388;13.096;2022-07-25T10:18:29;32.50;96.40
3564;DHT22;1796;52.388;13.096;2022-07-25T10:21:09;32.50;96.40
3564;DHT22;1796;52.388;13.096;2022-07-25T10:23:36;32.70;96.50
3564;DHT22;1796;52.388;13.096;2022-07-25T10:26:08;32.80;95.80
3564;DHT22;1796;52.388;13.096;2022-07-25T10:28:37;32.80;95.70
3564;DHT22;1796;52.388;13.096;2022-07-25T10:31:18;32.80;96.00
3564;DHT22;1796;52.388;13.096;2022-07-25T10:33:49;32.90;95.80
3564;DHT22;1796;52.388;13.096;2022-07-25T10:36:17;33.10;95.50
3564;DHT22;1796;52.388;13.096;2022-07-25T10:38:45;33.00;95.50
3564;DHT22;1796;52.388;13.096;2022-07-25T10:41:14;33.00;95.00
3564;DHT22;1796;52.388;13.096;2022-07-25T10:43:44;33.10;95.00
3564;DHT22;1796;52.388;13.096;2022-07-25T10:46:12;33.20;95.10
3564;DHT22;1796;52.388;13.096;2022-07-25T10:48:41;33.50;95.60
3564;DHT22;1796;52.388;13.096;2022-07-25T10:51:09;33.70;95.40
3564;DHT22;1796;52.388;13.096;2022-07-25T10:53:43;33.80;95.00
3564;DHT22;1796;52.388;13.096;2022-07-25T10:56:13;33.70;94.70
3564;DHT22;1796;52.388;13.096;2022-07-25T10:58:41;33.80;94.40
3564;DHT22;1796;52.388;13.096;2022-07-25T11:01:09;34.10;94.30
3564;DHT22;1796;52.388;13.096;2022-07-25T11:03:36;34.30;93.70
3564;DHT22;1796;52.388;13.096;2022-07-25T11:06:03;34.30;93.50
3564;DHT22;1796;52.388;13.096;2022-07-25T11:08:30;34.20;92.90
3564;DHT22;1796;52.388;13.096;2022-07-25T11:11:02;34.20;93.20
3564;DHT22;1796;52.388;13.096;2022-07-25T11:13:29;34.20;93.60
3564;DHT22;1796;52.388;13.096;2022-07-25T11:15:56;34.20;93.20
3564;DHT22;1796;52.388;13.096;2022-07-25T11:18:31;34.20;93.40
3564;DHT22;1796;52.388;13.096;2022-07-25T11:20:59;34.30;93.30
3564;DHT22;1796;52.388;13.096;2022-07-25T11:23:26;34.20;93.20
3564;DHT22;1796;52.388;13.096;2022-07-25T11:26:05;34.20;93.30
3564;DHT22;1796;52.388;13.096;2022-07-25T11:28:39;34.30;93.60
3564;DHT22;1796;52.388;13.096;2022-07-25T11:31:06;34.40;93.10
3564;DHT22;1796;52.388;13.096;2022-07-25T11:33:34;34.40;93.10
3564;DHT22;1796;52.388;13.096;2022-07-25T11:36:02;34.40;92.80
3564;DHT22;1796;52.388;13.096;2022-07-25T11:38:29;34.40;92.90
3564;DHT22;1796;52.388;13.096;2022-07-25T11:40:56;34.40;92.40
3564;DHT22;1796;52.388;13.096;2022-07-25T11:43:25;34.60;92.80
3564;DHT22;1796;52.388;13.096;2022-07-25T11:45:57;34.70;92.70
3564;DHT22;1796;52.388;13.096;2022-07-25T11:48:30;34.70;92.40
3564;DHT22;1796;52.388;13.096;2022-07-25T11:51:06;34.90;92.00
3564;DHT22;1796;52.388;13.096;2022-07-25T11:53:39;35.10;91.50
3564;DHT22;1796;52.388;13.096;2022-07-25T11:56:17;35.20;90.80
3564;DHT22;1796;52.388;13.096;2022-07-25T11:58:55;35.30;91.30
3564;DHT22;1796;52.388;13.096;2022-07-25T12:01:23;35.30;90.60
3564;DHT22;1796;52.388;13.096;2022-07-25T12:03:51;35.20;91.20
3564;DHT22;1796;52.388;13.096;2022-07-25T12:06:18;35.10;90.60
3564;DHT22;1796;52.388;13.096;2022-07-25T12:08:45;35.10;90.40
3564;DHT22;1796;52.388;13.096;2022-07-25T12:11:17;35.10;90.40
3564;DHT22;1796;52.388;13.096;2022-07-25T12:13:46;35.00;91.30
3564;DHT22;1796;52.388;13.096;2022-07-25T12:16:13;35.10;90.90
3564;DHT22;1796;52.388;13.096;2022-07-25T12:18:40;35.10;90.40
3564;DHT22;1796;52.388;13.096;2022-07-25T12:21:07;35.30;90.60
3564;DHT22;1796;52.388;13.096;2022-07-25T12:23:34;35.40;90.70
3564;DHT22;1796;52.388;13.096;2022-07-25T12:26:03;35.30;90.50
3564;DHT22;1796;52.388;13.096;2022-07-25T12:28:31;35.10;90.10
3564;DHT22;1796;52.388;13.096;2022-07-25T12:30:59;35.10;90.40
3564;DHT22;1796;52.388;13.096;2022-07-25T12:33:26;35.30;90.70
3564;DHT22;1796;52.388;13.096;2022-07-25T12:35:53;35.30;90.30
3564;DHT22;1796;52.388;13.096;2022-07-25T12:38:20;35.40;90.30
3564;DHT22;1796;52.388;13.096;2022-07-25T12:40:47;35.40;90.10
3564;DHT22;1796;52.388;13.096;2022-07-25T12:43:14;35.50;90.20
3564;DHT22;1796;52.388;13.096;2022-07-25T12:45:41;35.80;90.30
3564;DHT22;1796;52.388;13.096;2022-07-25T12:48:11;35.90;90.00
3564;DHT22;1796;52.388;13.096;2022-07-25T12:50:38;36.00;90.20
3564;DHT22;1796;52.388;13.096;2022-07-25T12:53:05;36.30;89.50
3564;DHT22;1796;52.388;13.096;2022-07-25T12:55:32;36.40;89.40
3564;DHT22;1796;52.388;13.096;2022-07-25T12:57:59;36.70;87.90
3564;DHT22;1796;52.388;13.096;2022-07-25T13:00:26;36.90;87.00
3564;DHT22;1796;52.388;13.096;2022-07-25T13:02:53;37.00;87.20
3564;DHT22;1796;52.388;13.096;2022-07-25T13:05:23;36.90;86.80
3564;DHT22;1796;52.388;13.096;2022-07-25T13:07:50;36.80;85.60
3564;DHT22;1796;52.388;13.096;2022-07-25T13:10:18;36.70;84.90
3564;DHT22;1796;52.388;13.096;2022-07-25T13:12:46;36.70;85.20
3564;DHT22;1796;52.388;13.096;2022-07-25T13:15:13;36.90;84.70
3564;DHT22;1796;52.388;13.096;2022-07-25T13:17:42;37.00;84.50
3564;DHT22;1796;52.388;13.096;2022-07-25T13:20:10;37.10;84.30
3564;DHT22;1796;52.388;13.096;2022-07-25T13:22:38;36.90;83.50
3564;DHT22;1796;52.388;13.096;2022-07-25T13:25:07;36.80;84.90
3564;DHT22;1796;52.388;13.096;2022-07-25T13:27:36;37.00;85.10
3564;DHT22;1796;52.388;13.096;2022-07-25T13:30:05;37.10;84.90
3564;DHT22;1796;52.388;13.096;2022-07-25T13:32:33;37.10;84.10
3564;DHT22;1796;52.388;13.096;2022-07-25T13:35:00;37.20;84.80
3564;DHT22;1796;52.388;13.096;2022-07-25T13:37:27;37.10;84.90
3564;DHT22;1796;52.388;13.096;2022-07-25T13:39:55;37.20;84.20
3564;DHT22;1796;52.388;13.096;2022-07-25T13:42:22;37.50;83.90
3564;DHT22;1796;52.388;13.096;2022-07-25T13:44:49;37.70;83.60
3564;DHT22;1796;52.388;13.096;2022-07-25T13:47:16;37.60;83.00
3564;DHT22;1796;52.388;13.096;2022-07-25T13:49:43;37.80;84.30
3564;DHT22;1796;52.388;13.096;2022-07-25T13:52:10;37.70;82.10
3564;DHT22;1796;52.388;13.096;2022-07-25T13:54:40;37.40;82.70
3564;DHT22;1796;52.388;13.096;2022-07-25T13:57:08;37.50;82.60
3564;DHT22;1796;52.388;13.096;2022-07-25T13:59:36;37.30;82.20
3564;DHT22;1796;52.388;13.096;2022-07-25T14:02:03;37.20;81.60
3564;DHT22;1796;52.388;13.096;2022-07-25T14:04:30;36.90;81.60
3564;DHT22;1796;52.388;13.096;2022-07-25T14:06:58;37.10;82.40
3564;DHT22;1796;52.388;13.096;2022-07-25T14:09:26;37.10;82.20
3564;DHT22;1796;52.388;13.096;2022-07-25T14:11:53;37.10;81.70
3564;DHT22;1796;52.388;13.096;2022-07-25T14:14:21;36.90;81.40
3564;DHT22;1796;52.388;13.096;2022-07-25T14:16:48;36.70;81.70
3564;DHT22;1796;52.388;13.096;2022-07-25T14:19:15;36.60;80.90
3564;DHT22;1796;52.388;13.096;2022-07-25T14:21:42;36.60;81.70
3564;DHT22;1796;52.388;13.096;2022-07-25T14:24:10;36.50;80.70
3564;DHT22;1796;52.388;13.096;2022-07-25T14:26:36;36.30;80.20
3564;DHT22;1796;52.388;13.096;2022-07-25T14:29:03;36.40;80.20
3564;DHT22;1796;52.388;13.096;2022-07-25T14:31:37;36.40;81.60
3564;DHT22;1796;52.388;13.096;2022-07-25T14:34:04;36.30;79.80
3564;DHT22;1796;52.388;13.096;2022-07-25T14:36:32;36.20;81.50
3564;DHT22;1796;52.388;13.096;2022-07-25T14:38:59;36.00;80.70
3564;DHT22;1796;52.388;13.096;2022-07-25T14:41:27;36.00;79.60
3564;DHT22;1796;52.388;13.096;2022-07-25T14:43:54;36.00;80.00
3564;DHT22;1796;52.388;13.096;2022-07-25T14:46:21;35.60;80.00
3564;DHT22;1796;52.388;13.096;2022-07-25T14:48:49;35.50;80.80
3564;DHT22;1796;52.388;13.096;2022-07-25T14:51:17;35.30;80.30
3564;DHT22;1796;52.388;13.096;2022-07-25T14:53:44;34.70;80.80
3564;DHT22;1796;52.388;13.096;2022-07-25T14:56:11;34.70;80.00
3564;DHT22;1796;52.388;13.096;2022-07-25T14:58:38;34.90;80.60
3564;DHT22;1796;52.388;13.096;2022-07-25T15:01:05;34.80;81.10
3564;DHT22;1796;52.388;13.096;2022-07-25T15:03:33;34.90;80.90
3564;DHT22;1796;52.388;13.096;2022-07-25T15:06:01;34.60;81.00
3564;DHT22;1796;52.388;13.096;2022-07-25T15:08:29;34.60;81.40
3564;DHT22;1796;52.388;13.096;2022-07-25T15:10:55;34.70;81.10
3564;DHT22;1796;52.388;13.096;2022-07-25T15:13:22;34.80;81.20
3564;DHT22;1796;52.388;13.096;2022-07-25T15:15:49;35.00;80.90
3564;DHT22;1796;52.388;13.096;2022-07-25T15:18:16;35.20;80.50
3564;DHT22;1796;52.388;13.096;2022-07-25T15:20:43;35.10;81.40
3564;DHT22;1796;52.388;13.096;2022-07-25T15:23:13;35.40;80.60
3564;DHT22;1796;52.388;13.096;2022-07-25T15:25:40;35.20;81.60
3564;DHT22;1796;52.388;13.096;2022-07-25T15:28:07;35.40;80.70
3564;DHT22;1796;52.388;13.096;2022-07-25T15:30:33;35.30;80.80
3564;DHT22;1796;52.388;13.096;2022-07-25T15:33:00;35.30;80.30
3564;DHT22;1796;52.388;13.096;2022-07-25T15:35:27;35.60;80.50
3564;DHT22;1796;52.388;13.096;2022-07-25T15:37:54;35.60;81.20
3564;DHT22;1796;52.388;13.096;2022-07-25T15:40:22;35.80;82.00
3564;DHT22;1796;52.388;13.096;2022-07-25T15:42:49;36.20;80.60
3564;DHT22;1796;52.388;13.096;2022-07-25T15:45:17;36.30;80.90
3564;DHT22;1796;52.388;13.096;2022-07-25T15:47:45;36.20;81.30
3564;DHT22;1796;52.388;13.096;2022-07-25T15:50:12;36.10;80.80